sensor_id;sensor_type;location;lat;lon;timestamp;pressure;altitude;pressure_sealevel;temperature;humidity
141;BME280;65;48.778;9.160;2023-05-03T00:01:27;99339.31;;;10.02;98.93
141;BME280;65;48.778;9.160;2023-05-03T00:04:15;99335.75;;;10.03;98.85
141;BME280;65;48.778;9.160;2023-05-03T00:07:01;99340.16;;;10.03;98.71
141;BME280;65;48.778;9.160;2023-05-03T00:09:47;99351.78;;;9.99;99.47
141;BME280;65;48.778;9.160;2023-05-03T00:12:36;99349.13;;;9.99;100.00
141;BME280;65;48.778;9.160;2023-05-03T00:15:22;99342.28;;;9.95;99.85
141;BME280;65;48.778;9.160;2023-05-03T00:18:08;99347.69;;;9.92;99.83
141;BME280;65;48.778;9.160;2023-05-03T00:20:53;99340.94;;;9.85;100.00
141;BME280;65;48.778;9.160;2023-05-03T00:23:39;99344.78;;;9.76;100.00
141;BME280;65;48.778;9.160;2023-05-03T00:26:25;99346.91;;;9.68;100.00
141;BME280;65;48.778;9.160;2023-05-03T00:29:18;99345.00;;;9.71;100.00
141;BME280;65;48.778;9.160;2023-05-03T00:32:05;99341.50;;;9.71;100.00
141;BME280;65;48.778;9.160;2023-05-03T00:34:55;99343.53;;;9.64;100.00
141;BME280;65;48.778;9.160;2023-05-03T00:37:41;99339.53;;;9.54;100.00
141;BME280;65;48.778;9.160;2023-05-03T00:40:27;99346.19;;;9.42;100.00
141;BME280;65;48.778;9.160;2023-05-03T00:43:13;99346.19;;;9.42;100.00
141;BME280;65;48.778;9.160;2023-05-03T00:45:59;99340.72;;;9.25;100.00
141;BME280;65;48.778;9.160;2023-05-03T00:48:47;99337.72;;;9.11;100.00
141;BME280;65;48.778;9.160;2023-05-03T00:51:33;99326.91;;;8.95;100.00
141;BME280;65;48.778;9.160;2023-05-03T00:54:19;99329.09;;;8.84;100.00
141;BME280;65;48.778;9.160;2023-05-03T00:57:05;99325.09;;;8.74;100.00
141;BME280;65;48.778;9.160;2023-05-03T00:59:52;99327.97;;;8.68;100.00
141;BME280;65;48.778;9.160;2023-05-03T01:02:37;99325.34;;;8.66;100.00
141;BME280;65;48.778;9.160;2023-05-03T01:05:25;99323.06;;;8.57;100.00
141;BME280;65;48.778;9.160;2023-05-03T01:08:28;99323.06;;;8.57;100.00
141;BME280;65;48.778;9.160;2023-05-03T01:11:25;99321.63;;;8.48;100.00
141;BME280;65;48.778;9.160;2023-05-03T01:14:40;99317.16;;;8.50;100.00
141;BME280;65;48.778;9.160;2023-05-03T01:17:38;99319.75;;;8.52;100.00
141;BME280;65;48.778;9.160;2023-05-03T01:20:25;99325.75;;;8.55;100.00
141;BME280;65;48.778;9.160;2023-05-03T01:23:42;99325.41;;;8.65;100.00
141;BME280;65;48.778;9.160;2023-05-03T01:26:30;99321.66;;;8.72;100.00
141;BME280;65;48.778;9.160;2023-05-03T01:29:17;99320.88;;;8.70;100.00
141;BME280;65;48.778;9.160;2023-05-03T01:32:07;99319.41;;;8.61;100.00
141;BME280;65;48.778;9.160;2023-05-03T01:35:03;99307.44;;;8.52;100.00
141;BME280;65;48.778;9.160;2023-05-03T01:37:49;99309.59;;;8.41;100.00
141;BME280;65;48.778;9.160;2023-05-03T01:40:46;99317.66;;;8.37;100.00
141;BME280;65;48.778;9.160;2023-05-03T01:43:39;99311.84;;;8.27;100.00
141;BME280;65;48.778;9.160;2023-05-03T01:46:25;99318.13;;;8.23;100.00
141;BME280;65;48.778;9.160;2023-05-03T01:49:11;99309.16;;;8.29;100.00
141;BME280;65;48.778;9.160;2023-05-03T01:51:57;99308.41;;;8.25;100.00
141;BME280;65;48.778;9.160;2023-05-03T01:54:42;99300.78;;;8.17;100.00
141;BME280;65;48.778;9.160;2023-05-03T01:57:28;99306.28;;;8.11;100.00
141;BME280;65;48.778;9.160;2023-05-03T02:00:37;99303.59;;;8.13;100.00
141;BME280;65;48.778;9.160;2023-05-03T02:03:23;99305.41;;;8.11;100.00
141;BME280;65;48.778;9.160;2023-05-03T02:06:08;99302.09;;;8.04;100.00
141;BME280;65;48.778;9.160;2023-05-03T02:08:54;99309.34;;;7.98;100.00
141;BME280;65;48.778;9.160;2023-05-03T02:11:40;99310.09;;;8.01;100.00
141;BME280;65;48.778;9.160;2023-05-03T02:14:26;99308.84;;;8.13;100.00
141;BME280;65;48.778;9.160;2023-05-03T02:17:12;99309.03;;;8.07;100.00
141;BME280;65;48.778;9.160;2023-05-03T02:19:58;99312.78;;;8.00;100.00
141;BME280;65;48.778;9.160;2023-05-03T02:22:44;99307.69;;;7.95;100.00
141;BME280;65;48.778;9.160;2023-05-03T02:25:30;99309.69;;;7.88;100.00
141;BME280;65;48.778;9.160;2023-05-03T02:28:16;99323.09;;;7.81;100.00
141;BME280;65;48.778;9.160;2023-05-03T02:31:02;99317.28;;;7.71;100.00
141;BME280;65;48.778;9.160;2023-05-03T02:33:50;99306.66;;;7.74;100.00
141;BME280;65;48.778;9.160;2023-05-03T02:36:36;99302.53;;;7.67;100.00
141;BME280;65;48.778;9.160;2023-05-03T02:39:22;99304.94;;;7.73;100.00
141;BME280;65;48.778;9.160;2023-05-03T02:42:08;99309.50;;;7.68;100.00
141;BME280;65;48.778;9.160;2023-05-03T02:44:53;99303.53;;;7.63;100.00
141;BME280;65;48.778;9.160;2023-05-03T02:47:39;99299.38;;;7.56;100.00
141;BME280;65;48.778;9.160;2023-05-03T02:50:25;99305.56;;;7.55;100.00
141;BME280;65;48.778;9.160;2023-05-03T02:53:11;99309.22;;;7.49;100.00
141;BME280;65;48.778;9.160;2023-05-03T02:55:56;99300.09;;;7.61;100.00
141;BME280;65;48.778;9.160;2023-05-03T02:58:42;99308.03;;;7.59;100.00
141;BME280;65;48.778;9.160;2023-05-03T03:01:28;99305.56;;;7.55;100.00
141;BME280;65;48.778;9.160;2023-05-03T03:04:14;99304.13;;;7.45;100.00
141;BME280;65;48.778;9.160;2023-05-03T03:07:00;99303.59;;;7.34;100.00
141;BME280;65;48.778;9.160;2023-05-03T03:09:45;99300.41;;;7.24;100.00
141;BME280;65;48.778;9.160;2023-05-03T03:12:35;99317.97;;;7.23;100.00
141;BME280;65;48.778;9.160;2023-05-03T03:15:21;99311.03;;;7.21;100.00
141;BME280;65;48.778;9.160;2023-05-03T03:18:06;99307.50;;;7.22;100.00
141;BME280;65;48.778;9.160;2023-05-03T03:20:52;99293.69;;;7.15;100.00
141;BME280;65;48.778;9.160;2023-05-03T03:23:38;99304.41;;;7.09;100.00
141;BME280;65;48.778;9.160;2023-05-03T03:26:23;99307.03;;;7.09;100.00
141;BME280;65;48.778;9.160;2023-05-03T03:29:09;99307.97;;;7.07;100.00
141;BME280;65;48.778;9.160;2023-05-03T03:31:55;99307.13;;;7.06;100.00
141;BME280;65;48.778;9.160;2023-05-03T03:34:41;99301.19;;;7.00;100.00
141;BME280;65;48.778;9.160;2023-05-03T03:37:27;99311.00;;;6.93;100.00
141;BME280;65;48.778;9.160;2023-05-03T03:40:13;99312.81;;;6.91;100.00
141;BME280;65;48.778;9.160;2023-05-03T03:42:58;99316.25;;;6.93;100.00
141;BME280;65;48.778;9.160;2023-05-03T03:45:44;99314.69;;;6.87;100.00
141;BME280;65;48.778;9.160;2023-05-03T03:48:30;99317.44;;;6.83;100.00
141;BME280;65;48.778;9.160;2023-05-03T03:51:16;99317.53;;;6.80;100.00
141;BME280;65;48.778;9.160;2023-05-03T03:57:31;99328.72;;;6.86;100.00
141;BME280;65;48.778;9.160;2023-05-03T04:00:16;99330.53;;;6.84;100.00
141;BME280;65;48.778;9.160;2023-05-03T04:03:03;99327.81;;;6.87;100.00
141;BME280;65;48.778;9.160;2023-05-03T04:05:49;99327.72;;;6.90;100.00
141;BME280;65;48.778;9.160;2023-05-03T04:08:35;99330.41;;;6.89;100.00
141;BME280;65;48.778;9.160;2023-05-03T04:11:21;99333.78;;;6.94;100.00
141;BME280;65;48.778;9.160;2023-05-03T04:14:07;99345.06;;;6.97;100.00
141;BME280;65;48.778;9.160;2023-05-03T04:16:52;99338.75;;;7.03;100.00
141;BME280;65;48.778;9.160;2023-05-03T04:19:38;99342.00;;;7.11;100.00
141;BME280;65;48.778;9.160;2023-05-03T04:22:24;99347.66;;;7.27;100.00
141;BME280;65;48.778;9.160;2023-05-03T04:25:11;99346.41;;;7.39;100.00
141;BME280;65;48.778;9.160;2023-05-03T04:28:01;99356.34;;;7.57;100.00
141;BME280;65;48.778;9.160;2023-05-03T04:30:47;99350.47;;;7.75;100.00
141;BME280;65;48.778;9.160;2023-05-03T04:33:33;99361.31;;;7.92;100.00
141;BME280;65;48.778;9.160;2023-05-03T04:36:19;99360.88;;;8.05;100.00
141;BME280;65;48.778;9.160;2023-05-03T04:39:09;99364.94;;;8.15;100.00
141;BME280;65;48.778;9.160;2023-05-03T04:41:57;99357.53;;;8.26;100.00
141;BME280;65;48.778;9.160;2023-05-03T04:44:42;99357.31;;;8.32;100.00
141;BME280;65;48.778;9.160;2023-05-03T04:47:29;99360.41;;;8.45;100.00
141;BME280;65;48.778;9.160;2023-05-03T04:50:16;99362.69;;;8.54;100.00
141;BME280;65;48.778;9.160;2023-05-03T04:53:02;99364.59;;;8.50;100.00
141;BME280;65;48.778;9.160;2023-05-03T04:55:49;99366.66;;;8.66;100.00
141;BME280;65;48.778;9.160;2023-05-03T04:58:35;99365.38;;;8.77;100.00
141;BME280;65;48.778;9.160;2023-05-03T05:01:22;99369.44;;;8.86;100.00
141;BME280;65;48.778;9.160;2023-05-03T05:04:12;99375.28;;;8.94;100.00
141;BME280;65;48.778;9.160;2023-05-03T05:06:58;99373.47;;;8.96;100.00
141;BME280;65;48.778;9.160;2023-05-03T05:09:43;99371.03;;;9.13;100.00
141;BME280;65;48.778;9.160;2023-05-03T05:12:29;99362.63;;;9.27;100.00
141;BME280;65;48.778;9.160;2023-05-03T05:15:15;99365.25;;;9.49;100.00
141;BME280;65;48.778;9.160;2023-05-03T05:18:01;99373.91;;;9.74;100.00
141;BME280;65;48.778;9.160;2023-05-03T05:20:47;99375.56;;;9.99;100.00
141;BME280;65;48.778;9.160;2023-05-03T05:23:32;99375.97;;;10.10;100.00
141;BME280;65;48.778;9.160;2023-05-03T05:26:18;99366.53;;;10.25;100.00
141;BME280;65;48.778;9.160;2023-05-03T05:29:04;99370.97;;;10.24;100.00
141;BME280;65;48.778;9.160;2023-05-03T05:31:50;99368.00;;;10.32;100.00
141;BME280;65;48.778;9.160;2023-05-03T05:34:37;99370.72;;;10.30;99.75
141;BME280;65;48.778;9.160;2023-05-03T05:37:24;99367.78;;;10.36;99.19
141;BME280;65;48.778;9.160;2023-05-03T05:40:10;99371.50;;;10.32;100.00
141;BME280;65;48.778;9.160;2023-05-03T05:42:56;99375.13;;;10.30;100.00
141;BME280;65;48.778;9.160;2023-05-03T05:45:42;99366.28;;;10.51;98.62
141;BME280;65;48.778;9.160;2023-05-03T05:48:28;99363.97;;;10.64;95.56
141;BME280;65;48.778;9.160;2023-05-03T05:51:14;99361.84;;;10.72;95.50
141;BME280;65;48.778;9.160;2023-05-03T05:53:59;99360.00;;;10.93;94.87
141;BME280;65;48.778;9.160;2023-05-03T05:56:45;99362.19;;;11.03;94.71
141;BME280;65;48.778;9.160;2023-05-03T05:59:31;99364.59;;;11.08;92.84
141;BME280;65;48.778;9.160;2023-05-03T06:02:17;99365.31;;;11.30;92.46
141;BME280;65;48.778;9.160;2023-05-03T06:05:03;99363.94;;;11.59;90.81
141;BME280;65;48.778;9.160;2023-05-03T06:07:50;99360.84;;;11.50;90.18
141;BME280;65;48.778;9.160;2023-05-03T06:10:35;99363.00;;;11.41;90.10
141;BME280;65;48.778;9.160;2023-05-03T06:13:22;99358.16;;;11.32;90.86
141;BME280;65;48.778;9.160;2023-05-03T06:16:24;99361.94;;;11.27;90.40
141;BME280;65;48.778;9.160;2023-05-03T06:19:10;99367.31;;;11.06;91.26
141;BME280;65;48.778;9.160;2023-05-03T06:21:56;99361.47;;;11.19;93.02
141;BME280;65;48.778;9.160;2023-05-03T06:24:42;99363.88;;;11.42;91.10
141;BME280;65;48.778;9.160;2023-05-03T06:27:28;99369.09;;;11.62;87.20
141;BME280;65;48.778;9.160;2023-05-03T06:30:14;99369.94;;;11.99;85.72
141;BME280;65;48.778;9.160;2023-05-03T06:32:59;99359.69;;;12.27;84.41
141;BME280;65;48.778;9.160;2023-05-03T06:35:45;99365.75;;;12.29;85.92
141;BME280;65;48.778;9.160;2023-05-03T06:38:34;99369.34;;;12.28;84.75
141;BME280;65;48.778;9.160;2023-05-03T06:41:19;99362.41;;;12.26;86.14
141;BME280;65;48.778;9.160;2023-05-03T06:44:05;99365.81;;;12.95;82.89
141;BME280;65;48.778;9.160;2023-05-03T06:46:54;99371.81;;;13.64;79.49
141;BME280;65;48.778;9.160;2023-05-03T06:49:39;99358.78;;;14.35;72.32
141;BME280;65;48.778;9.160;2023-05-03T06:52:25;99368.59;;;15.07;71.51
141;BME280;65;48.778;9.160;2023-05-03T06:55:11;99374.16;;;16.53;63.05
141;BME280;65;48.778;9.160;2023-05-03T06:57:57;99361.47;;;17.07;59.88
141;BME280;65;48.778;9.160;2023-05-03T07:00:42;99361.88;;;17.63;58.14
141;BME280;65;48.778;9.160;2023-05-03T07:03:28;99357.88;;;18.75;54.56
141;BME280;65;48.778;9.160;2023-05-03T07:06:14;99352.34;;;18.54;53.26
141;BME280;65;48.778;9.160;2023-05-03T07:09:01;99351.66;;;20.07;48.96
141;BME280;65;48.778;9.160;2023-05-03T07:11:46;99347.44;;;19.39;49.21
141;BME280;65;48.778;9.160;2023-05-03T07:14:34;99346.72;;;20.56;46.70
141;BME280;65;48.778;9.160;2023-05-03T07:17:20;99343.88;;;20.78;46.39
141;BME280;65;48.778;9.160;2023-05-03T07:20:07;99338.50;;;20.57;47.85
141;BME280;65;48.778;9.160;2023-05-03T07:22:53;99331.69;;;21.85;45.87
141;BME280;65;48.778;9.160;2023-05-03T07:25:39;99332.03;;;21.11;46.47
141;BME280;65;48.778;9.160;2023-05-03T07:28:26;99328.69;;;21.78;42.26
141;BME280;65;48.778;9.160;2023-05-03T07:31:11;99329.34;;;22.11;42.66
141;BME280;65;48.778;9.160;2023-05-03T07:33:57;99330.38;;;20.89;45.83
141;BME280;65;48.778;9.160;2023-05-03T07:36:43;99325.50;;;22.03;45.09
141;BME280;65;48.778;9.160;2023-05-03T07:39:29;99316.84;;;22.29;44.29
141;BME280;65;48.778;9.160;2023-05-03T07:42:15;99320.34;;;23.15;40.81
141;BME280;65;48.778;9.160;2023-05-03T07:45:01;99311.81;;;24.10;40.69
141;BME280;65;48.778;9.160;2023-05-03T07:47:47;99318.09;;;24.72;40.56
141;BME280;65;48.778;9.160;2023-05-03T07:50:32;99314.75;;;24.16;39.28
141;BME280;65;48.778;9.160;2023-05-03T07:53:18;99313.09;;;23.43;40.65
141;BME280;65;48.778;9.160;2023-05-03T07:56:04;99306.09;;;23.50;41.07
141;BME280;65;48.778;9.160;2023-05-03T07:58:50;99307.59;;;23.89;38.74
141;BME280;65;48.778;9.160;2023-05-03T08:01:36;99305.03;;;23.88;39.08
141;BME280;65;48.778;9.160;2023-05-03T08:04:22;99307.63;;;24.51;37.05
141;BME280;65;48.778;9.160;2023-05-03T08:07:08;99290.50;;;24.68;37.16
141;BME280;65;48.778;9.160;2023-05-03T08:09:54;99299.78;;;24.04;40.20
141;BME280;65;48.778;9.160;2023-05-03T08:13:11;99307.38;;;24.36;39.77
141;BME280;65;48.778;9.160;2023-05-03T08:15:57;99309.66;;;25.77;35.56
141;BME280;65;48.778;9.160;2023-05-03T08:18:42;99311.81;;;25.65;37.17
141;BME280;65;48.778;9.160;2023-05-03T08:21:28;99305.84;;;25.11;36.48
141;BME280;65;48.778;9.160;2023-05-03T08:24:14;99300.91;;;24.81;35.74
141;BME280;65;48.778;9.160;2023-05-03T08:27:00;99304.84;;;25.63;35.07
141;BME280;65;48.778;9.160;2023-05-03T08:29:46;99307.69;;;26.03;34.57
141;BME280;65;48.778;9.160;2023-05-03T08:32:32;99314.47;;;26.24;35.33
141;BME280;65;48.778;9.160;2023-05-03T08:35:18;99308.19;;;26.07;34.98
141;BME280;65;48.778;9.160;2023-05-03T08:38:03;99305.00;;;26.68;34.51
141;BME280;65;48.778;9.160;2023-05-03T08:40:50;99307.34;;;26.55;35.83
141;BME280;65;48.778;9.160;2023-05-03T08:43:42;99312.03;;;27.18;35.33
141;BME280;65;48.778;9.160;2023-05-03T08:46:28;99303.63;;;26.72;35.05
141;BME280;65;48.778;9.160;2023-05-03T08:49:16;99306.47;;;27.42;32.31
141;BME280;65;48.778;9.160;2023-05-03T08:52:04;99301.44;;;27.70;30.74
141;BME280;65;48.778;9.160;2023-05-03T08:54:50;99307.34;;;26.31;34.39
141;BME280;65;48.778;9.160;2023-05-03T08:57:36;99309.69;;;26.91;35.36
141;BME280;65;48.778;9.160;2023-05-03T09:00:27;99309.63;;;27.62;34.23
141;BME280;65;48.778;9.160;2023-05-03T09:03:13;99308.44;;;27.65;33.08
141;BME280;65;48.778;9.160;2023-05-03T09:05:59;99312.28;;;26.68;37.79
141;BME280;65;48.778;9.160;2023-05-03T09:08:48;99311.78;;;26.64;33.06
141;BME280;65;48.778;9.160;2023-05-03T09:11:36;99308.63;;;27.55;31.78
141;BME280;65;48.778;9.160;2023-05-03T09:14:22;99309.84;;;28.90;31.35
141;BME280;65;48.778;9.160;2023-05-03T09:17:18;99317.59;;;27.64;31.22
141;BME280;65;48.778;9.160;2023-05-03T09:20:06;99309.59;;;24.92;37.15
141;BME280;65;48.778;9.160;2023-05-03T09:22:53;99308.50;;;25.88;36.08
141;BME280;65;48.778;9.160;2023-05-03T09:25:43;99303.16;;;27.63;31.81
141;BME280;65;48.778;9.160;2023-05-03T09:28:39;99309.00;;;23.39;38.33
141;BME280;65;48.778;9.160;2023-05-03T09:31:30;99304.41;;;25.75;34.48
141;BME280;65;48.778;9.160;2023-05-03T09:34:20;99293.97;;;26.45;34.68
141;BME280;65;48.778;9.160;2023-05-03T09:37:07;99303.25;;;23.79;39.64
141;BME280;65;48.778;9.160;2023-05-03T09:40:04;99294.44;;;22.94;41.16
141;BME280;65;48.778;9.160;2023-05-03T09:43:05;99292.28;;;22.61;46.30
141;BME280;65;48.778;9.160;2023-05-03T09:46:06;99298.72;;;26.52;37.06
141;BME280;65;48.778;9.160;2023-05-03T09:48:53;99300.13;;;28.58;31.68
141;BME280;65;48.778;9.160;2023-05-03T09:51:41;99301.19;;;25.80;34.89
141;BME280;65;48.778;9.160;2023-05-03T09:54:27;99282.44;;;24.76;39.23
141;BME280;65;48.778;9.160;2023-05-03T09:57:16;99294.22;;;24.67;39.00
141;BME280;65;48.778;9.160;2023-05-03T10:00:02;99288.50;;;25.97;35.55
141;BME280;65;48.778;9.160;2023-05-03T10:02:49;99284.31;;;26.51;34.27
141;BME280;65;48.778;9.160;2023-05-03T10:05:48;99285.59;;;27.74;32.16
141;BME280;65;48.778;9.160;2023-05-03T10:08:54;99282.91;;;26.88;34.21
141;BME280;65;48.778;9.160;2023-05-03T10:11:47;99285.50;;;24.99;36.54
141;BME280;65;48.778;9.160;2023-05-03T10:14:34;99289.00;;;25.84;36.40
141;BME280;65;48.778;9.160;2023-05-03T10:20:31;99273.25;;;26.77;34.58
141;BME280;65;48.778;9.160;2023-05-03T10:23:17;99272.06;;;28.43;30.66
141;BME280;65;48.778;9.160;2023-05-03T10:28:54;99267.03;;;26.11;34.13
141;BME280;65;48.778;9.160;2023-05-03T10:31:46;99271.13;;;27.12;33.77
141;BME280;65;48.778;9.160;2023-05-03T10:34:33;99267.69;;;29.30;29.95
141;BME280;65;48.778;9.160;2023-05-03T10:37:24;99269.72;;;29.94;28.67
141;BME280;65;48.778;9.160;2023-05-03T10:40:13;99264.50;;;29.77;28.39
141;BME280;65;48.778;9.160;2023-05-03T10:42:59;99265.94;;;30.09;27.97
141;BME280;65;48.778;9.160;2023-05-03T10:45:45;99257.66;;;28.86;28.54
141;BME280;65;48.778;9.160;2023-05-03T10:48:34;99256.44;;;29.18;27.04
141;BME280;65;48.778;9.160;2023-05-03T10:51:32;99252.63;;;28.23;27.88
141;BME280;65;48.778;9.160;2023-05-03T10:54:21;99249.00;;;29.27;28.26
141;BME280;65;48.778;9.160;2023-05-03T10:57:07;99245.63;;;30.40;26.66
141;BME280;65;48.778;9.160;2023-05-03T10:59:53;99256.72;;;27.81;29.20
141;BME280;65;48.778;9.160;2023-05-03T11:05:40;99239.22;;;31.17;24.95
141;BME280;65;48.778;9.160;2023-05-03T11:08:27;99236.41;;;31.44;24.81
141;BME280;65;48.778;9.160;2023-05-03T11:11:15;99234.09;;;31.48;24.54
141;BME280;65;48.778;9.160;2023-05-03T11:14:01;99235.50;;;31.92;24.23
141;BME280;65;48.778;9.160;2023-05-03T11:16:46;99232.44;;;31.54;25.43
141;BME280;65;48.778;9.160;2023-05-03T11:19:35;99224.25;;;33.19;22.17
141;BME280;65;48.778;9.160;2023-05-03T11:22:20;99215.34;;;32.26;23.35
141;BME280;65;48.778;9.160;2023-05-03T11:25:06;99207.41;;;31.43;23.96
141;BME280;65;48.778;9.160;2023-05-03T11:27:52;99209.63;;;31.88;23.17
141;BME280;65;48.778;9.160;2023-05-03T11:30:38;99202.06;;;32.62;23.59
141;BME280;65;48.778;9.160;2023-05-03T11:33:24;99202.06;;;32.16;23.63
141;BME280;65;48.778;9.160;2023-05-03T11:36:09;99207.78;;;27.27;29.55
141;BME280;65;48.778;9.160;2023-05-03T11:38:55;99215.84;;;23.62;35.29
141;BME280;65;48.778;9.160;2023-05-03T11:41:41;99217.44;;;24.08;35.22
141;BME280;65;48.778;9.160;2023-05-03T11:44:27;99207.41;;;26.91;29.19
141;BME280;65;48.778;9.160;2023-05-03T11:47:13;99205.94;;;27.82;27.15
141;BME280;65;48.778;9.160;2023-05-03T11:49:58;99206.53;;;27.07;29.88
141;BME280;65;48.778;9.160;2023-05-03T11:52:44;99204.38;;;26.86;29.31
141;BME280;65;48.778;9.160;2023-05-03T11:55:30;99194.38;;;26.15;30.54
141;BME280;65;48.778;9.160;2023-05-03T11:58:26;99191.38;;;27.97;32.40
141;BME280;65;48.778;9.160;2023-05-03T12:01:12;99186.06;;;29.37;27.92
141;BME280;65;48.778;9.160;2023-05-03T12:03:59;99181.63;;;27.34;31.07
141;BME280;65;48.778;9.160;2023-05-03T12:06:46;99181.06;;;29.40;28.07
141;BME280;65;48.778;9.160;2023-05-03T12:09:36;99178.47;;;28.96;29.49
141;BME280;65;48.778;9.160;2023-05-03T12:12:22;99179.16;;;26.06;31.19
141;BME280;65;48.778;9.160;2023-05-03T12:15:08;99184.84;;;23.84;35.96
141;BME280;65;48.778;9.160;2023-05-03T12:17:55;99175.28;;;25.09;33.51
141;BME280;65;48.778;9.160;2023-05-03T12:20:41;99175.28;;;27.11;33.03
141;BME280;65;48.778;9.160;2023-05-03T12:23:27;99168.63;;;27.76;29.70
141;BME280;65;48.778;9.160;2023-05-03T12:26:14;99179.63;;;27.82;29.54
141;BME280;65;48.778;9.160;2023-05-03T12:29:00;99184.94;;;28.51;28.16
141;BME280;65;48.778;9.160;2023-05-03T12:31:46;99180.72;;;26.72;29.09
141;BME280;65;48.778;9.160;2023-05-03T12:34:32;99176.06;;;27.28;27.92
141;BME280;65;48.778;9.160;2023-05-03T12:37:18;99175.03;;;23.47;32.60
141;BME280;65;48.778;9.160;2023-05-03T12:40:04;99170.91;;;22.43;34.66
141;BME280;65;48.778;9.160;2023-05-03T12:42:50;99170.03;;;22.15;36.62
141;BME280;65;48.778;9.160;2023-05-03T12:45:35;99162.97;;;22.41;36.93
141;BME280;65;48.778;9.160;2023-05-03T12:48:21;99160.97;;;21.87;36.92
141;BME280;65;48.778;9.160;2023-05-03T12:51:09;99154.59;;;22.07;36.48
141;BME280;65;48.778;9.160;2023-05-03T12:53:54;99146.19;;;23.83;32.80
141;BME280;65;48.778;9.160;2023-05-03T12:56:41;99149.00;;;22.93;32.32
141;BME280;65;48.778;9.160;2023-05-03T12:59:27;99147.34;;;23.63;32.38
141;BME280;65;48.778;9.160;2023-05-03T13:02:12;99150.25;;;24.65;29.22
141;BME280;65;48.778;9.160;2023-05-03T13:04:59;99140.44;;;24.98;29.40
141;BME280;65;48.778;9.160;2023-05-03T13:11:14;99138.25;;;25.02;29.59
141;BME280;65;48.778;9.160;2023-05-03T13:14:01;99132.47;;;23.41;34.11
141;BME280;65;48.778;9.160;2023-05-03T13:16:47;99129.66;;;22.05;36.35
141;BME280;65;48.778;9.160;2023-05-03T13:19:36;99130.53;;;21.19;37.64
141;BME280;65;48.778;9.160;2023-05-03T13:22:22;99137.78;;;21.38;36.71
141;BME280;65;48.778;9.160;2023-05-03T13:25:08;99137.47;;;21.79;35.97
141;BME280;65;48.778;9.160;2023-05-03T13:27:53;99121.63;;;22.33;35.84
141;BME280;65;48.778;9.160;2023-05-03T13:30:39;99124.59;;;22.67;35.37
141;BME280;65;48.778;9.160;2023-05-03T13:33:25;99120.59;;;23.34;34.48
141;BME280;65;48.778;9.160;2023-05-03T13:36:11;99112.56;;;23.42;30.23
141;BME280;65;48.778;9.160;2023-05-03T13:38:56;99109.69;;;22.35;34.30
141;BME280;65;48.778;9.160;2023-05-03T13:41:43;99108.81;;;22.72;39.53
141;BME280;65;48.778;9.160;2023-05-03T13:44:29;99107.47;;;24.01;34.03
141;BME280;65;48.778;9.160;2023-05-03T13:47:15;99101.81;;;23.86;37.20
141;BME280;65;48.778;9.160;2023-05-03T13:50:01;99104.53;;;23.86;33.89
141;BME280;65;48.778;9.160;2023-05-03T13:52:47;99100.34;;;22.67;35.68
141;BME280;65;48.778;9.160;2023-05-03T13:55:32;99101.91;;;22.05;35.75
141;BME280;65;48.778;9.160;2023-05-03T13:58:18;99095.44;;;20.92;38.72
141;BME280;65;48.778;9.160;2023-05-03T14:01:05;99092.56;;;20.74;36.75
141;BME280;65;48.778;9.160;2023-05-03T14:03:51;99096.09;;;20.34;38.55
141;BME280;65;48.778;9.160;2023-05-03T14:06:37;99094.28;;;20.35;37.52
141;BME280;65;48.778;9.160;2023-05-03T14:09:24;99082.28;;;20.98;38.74
141;BME280;65;48.778;9.160;2023-05-03T14:12:09;99078.81;;;21.83;36.12
141;BME280;65;48.778;9.160;2023-05-03T14:14:55;99080.94;;;21.79;35.64
141;BME280;65;48.778;9.160;2023-05-03T14:17:41;99086.00;;;22.66;36.63
141;BME280;65;48.778;9.160;2023-05-03T14:20:28;99079.97;;;23.00;33.05
141;BME280;65;48.778;9.160;2023-05-03T14:23:13;99068.97;;;22.93;36.92
141;BME280;65;48.778;9.160;2023-05-03T14:26:00;99074.34;;;22.93;33.94
141;BME280;65;48.778;9.160;2023-05-03T14:28:46;99062.00;;;22.73;34.32
141;BME280;65;48.778;9.160;2023-05-03T14:31:33;99063.41;;;22.22;37.09
141;BME280;65;48.778;9.160;2023-05-03T14:34:18;99056.50;;;21.63;36.79
141;BME280;65;48.778;9.160;2023-05-03T14:37:04;99056.91;;;21.68;35.58
141;BME280;65;48.778;9.160;2023-05-03T14:39:50;99051.44;;;21.51;35.54
141;BME280;65;48.778;9.160;2023-05-03T14:42:36;99042.16;;;21.72;34.66
141;BME280;65;48.778;9.160;2023-05-03T14:45:22;99044.63;;;20.79;34.71
141;BME280;65;48.778;9.160;2023-05-03T14:48:07;99028.06;;;20.64;37.79
141;BME280;65;48.778;9.160;2023-05-03T14:50:53;99030.19;;;20.70;36.88
141;BME280;65;48.778;9.160;2023-05-03T14:53:39;99025.03;;;21.73;36.21
141;BME280;65;48.778;9.160;2023-05-03T14:56:25;99029.28;;;21.66;35.22
141;BME280;65;48.778;9.160;2023-05-03T14:59:11;99029.66;;;21.44;36.74
141;BME280;65;48.778;9.160;2023-05-03T15:01:57;99030.19;;;21.19;35.02
141;BME280;65;48.778;9.160;2023-05-03T15:04:43;99035.59;;;20.99;35.96
141;BME280;65;48.778;9.160;2023-05-03T15:07:29;99036.69;;;20.77;36.50
141;BME280;65;48.778;9.160;2023-05-03T15:10:16;99042.91;;;20.78;36.99
141;BME280;65;48.778;9.160;2023-05-03T15:13:01;99032.88;;;20.61;38.75
141;BME280;65;48.778;9.160;2023-05-03T15:15:47;99041.72;;;20.02;37.86
141;BME280;65;48.778;9.160;2023-05-03T15:18:34;99028.41;;;19.90;40.62
141;BME280;65;48.778;9.160;2023-05-03T15:21:20;99032.06;;;19.89;39.64
141;BME280;65;48.778;9.160;2023-05-03T15:24:06;99029.94;;;19.83;39.50
141;BME280;65;48.778;9.160;2023-05-03T15:26:52;99039.94;;;19.81;38.27
141;BME280;65;48.778;9.160;2023-05-03T15:29:39;99041.28;;;19.66;37.47
141;BME280;65;48.778;9.160;2023-05-03T15:32:25;99043.72;;;19.69;36.93
141;BME280;65;48.778;9.160;2023-05-03T15:35:10;99038.72;;;19.65;37.82
141;BME280;65;48.778;9.160;2023-05-03T15:37:57;99042.91;;;19.57;39.23
141;BME280;65;48.778;9.160;2023-05-03T15:40:43;99028.13;;;19.63;36.17
141;BME280;65;48.778;9.160;2023-05-03T15:43:28;99038.59;;;19.66;37.59
141;BME280;65;48.778;9.160;2023-05-03T15:46:14;99030.22;;;19.59;36.72
141;BME280;65;48.778;9.160;2023-05-03T15:49:00;99025.56;;;19.41;35.94
141;BME280;65;48.778;9.160;2023-05-03T15:51:46;99021.00;;;19.32;36.82
141;BME280;65;48.778;9.160;2023-05-03T15:54:32;99025.38;;;19.33;37.83
141;BME280;65;48.778;9.160;2023-05-03T15:57:18;99020.22;;;19.41;36.49
141;BME280;65;48.778;9.160;2023-05-03T16:00:05;99021.63;;;19.45;36.42
141;BME280;65;48.778;9.160;2023-05-03T16:02:52;99023.41;;;19.35;37.62
141;BME280;65;48.778;9.160;2023-05-03T16:05:38;99025.97;;;19.36;38.89